createdAt,value
2023-04-10T00:00:57.689Z,100198.58
2023-04-10T00:03:27.796Z,100198.54
2023-04-10T00:05:57.621Z,100197.89
2023-04-10T00:08:26.518Z,100198.80
2023-04-10T00:10:55.197Z,100199.30
2023-04-10T00:13:23.770Z,100196.35
2023-04-10T00:15:52.726Z,100196.95
2023-04-10T00:18:21.399Z,100197.02
2023-04-10T00:20:50.083Z,100196.71
2023-04-10T00:23:18.912Z,100197.88
2023-04-10T00:25:49.110Z,100200.10
2023-04-10T00:28:17.697Z,100186.15
2023-04-10T00:30:46.466Z,100191.35
2023-04-10T00:33:15.283Z,100187.47
2023-04-10T00:35:44.293Z,100188.63
2023-04-10T00:38:13.560Z,100184.70
2023-04-10T00:40:42.362Z,100184.63
2023-04-10T00:43:11.136Z,100184.09
2023-04-10T00:45:40.464Z,100182.91
2023-04-10T00:48:09.214Z,100182.77
2023-04-10T00:50:38.508Z,100181.98
2023-04-10T00:53:07.418Z,100185.19
2023-04-10T00:55:36.108Z,100181.65
2023-04-10T00:58:05.137Z,100179.71
2023-04-10T01:00:33.817Z,100179.19
2023-04-10T01:03:02.629Z,100185.93
2023-04-10T01:05:39.837Z,100184.98
2023-04-10T01:08:35.869Z,100183.67
2023-04-10T01:11:30.017Z,100185.58
2023-04-10T01:14:05.736Z,100183.20
2023-04-10T01:16:51.850Z,100179.40
2023-04-10T01:19:34.222Z,100179.95
2023-04-10T01:22:05.426Z,100174.37
2023-04-10T01:25:01.290Z,100174.60
2023-04-10T01:28:13.337Z,100177.46
2023-04-10T01:30:44.205Z,100179.45
2023-04-10T01:33:16.764Z,100177.56
2023-04-10T01:35:52.690Z,100176.44
2023-04-10T01:38:27.367Z,100175.82
2023-04-10T01:40:58.405Z,100177.75
2023-04-10T01:43:32.337Z,100173.14
2023-04-10T01:46:03.568Z,100175.33
2023-04-10T01:48:32.260Z,100176.48
2023-04-10T01:51:07.392Z,100175.45
2023-04-10T01:53:36.751Z,100182.08
2023-04-10T01:56:08.766Z,100182.98
2023-04-10T01:58:44.465Z,100184.08
2023-04-10T02:01:29.657Z,100179.86
2023-04-10T02:04:02.681Z,100180.71
2023-04-10T02:07:09.269Z,100185.48
2023-04-10T02:09:53.338Z,100184.92
2023-04-10T02:12:53.888Z,100186.40
2023-04-10T02:15:27.694Z,100187.89
2023-04-10T02:17:59.093Z,100180.52
2023-04-10T02:20:28.079Z,100181.80
2023-04-10T02:22:59.793Z,100183.05
2023-04-10T02:25:32.284Z,100180.09
2023-04-10T02:28:08.616Z,100169.73
2023-04-10T02:30:37.332Z,100182.54
2023-04-10T02:33:06.310Z,100179.77
2023-04-10T02:35:36.167Z,100177.63
2023-04-10T02:38:05.338Z,100179.49
2023-04-10T02:40:37.210Z,100175.45
2023-04-10T02:43:16.135Z,100172.60
2023-04-10T02:45:44.913Z,100175.05
2023-04-10T02:48:15.560Z,100175.36
2023-04-10T02:50:46.800Z,100175.51
2023-04-10T02:53:17.031Z,100173.64
2023-04-10T02:55:45.922Z,100174.95
2023-04-10T02:58:15.265Z,100176.77
2023-04-10T03:00:50.972Z,100175.58
2023-04-10T03:03:29.256Z,100167.70
2023-04-10T03:05:57.949Z,100173.58
2023-04-10T03:08:30.608Z,100169.37
2023-04-10T03:10:59.249Z,100165.90
2023-04-10T03:13:28.100Z,100160.80
2023-04-10T03:15:57.052Z,100159.77
2023-04-10T03:18:26.092Z,100156.94
2023-04-10T03:20:55.689Z,100157.09
2023-04-10T03:23:24.281Z,100157.92
2023-04-10T03:25:55.829Z,100157.45
2023-04-10T03:28:28.166Z,100160.04
2023-04-10T03:30:57.500Z,100156.27
2023-04-10T03:33:26.366Z,100155.86
2023-04-10T03:35:54.886Z,100158.56
2023-04-10T03:38:24.020Z,100165.85
2023-04-10T03:40:54.301Z,100162.41
2023-04-10T03:43:25.838Z,100160.61
2023-04-10T03:45:54.481Z,100161.48
2023-04-10T03:48:23.314Z,100164.20
2023-04-10T03:50:52.011Z,100164.68
2023-04-10T03:53:21.012Z,100166.79
2023-04-10T03:55:49.927Z,100165.57
2023-04-10T03:58:19.775Z,100169.85
2023-04-10T04:00:48.358Z,100168.70
2023-04-10T04:03:32.928Z,100170.31
2023-04-10T04:06:50.610Z,100164.53
2023-04-10T04:09:22.271Z,100172.25
2023-04-10T04:12:31.499Z,100173.98
2023-04-10T04:15:20.551Z,100175.96
2023-04-10T04:18:29.965Z,100177.33
2023-04-10T04:21:18.555Z,100184.19
2023-04-10T04:24:07.299Z,100182.83
2023-04-10T04:26:57.686Z,100186.14
2023-04-10T04:29:44.509Z,100188.97
2023-04-10T04:32:18.696Z,100189.81
2023-04-10T04:35:03.696Z,100186.62
2023-04-10T04:38:01.037Z,100172.41
2023-04-10T04:41:20.713Z,100188.41
2023-04-10T04:44:08.465Z,100193.31
2023-04-10T04:47:03.342Z,100194.11
2023-04-10T04:50:21.308Z,100197.65
2023-04-10T04:53:39.129Z,100194.34
2023-04-10T04:56:29.157Z,100198.78
2023-04-10T04:59:44.382Z,100203.48
2023-04-10T05:02:26.800Z,100201.94
2023-04-10T05:05:16.581Z,100204.70
2023-04-10T05:08:01.737Z,100207.94
2023-04-10T05:10:48.713Z,100213.85
2023-04-10T05:13:46.753Z,100212.54
2023-04-10T05:16:23.793Z,100211.07
2023-04-10T05:19:39.476Z,100215.46
2023-04-10T05:22:42.912Z,100216.61
2023-04-10T05:25:37.792Z,100219.83
2023-04-10T05:28:17.042Z,100219.49
2023-04-10T05:31:47.972Z,100219.54
2023-04-10T05:34:20.810Z,100220.31
2023-04-10T05:37:36.264Z,100226.84
2023-04-10T05:40:30.687Z,100224.64
2023-04-10T05:43:43.329Z,100219.36
2023-04-10T05:46:26.404Z,100222.55
2023-04-10T05:49:07.976Z,100220.99
2023-04-10T05:51:53.564Z,100221.16
2023-04-10T05:55:12.173Z,100219.09
2023-04-10T05:58:21.920Z,100213.58
2023-04-10T06:01:13.888Z,100219.22
2023-04-10T06:03:53.201Z,100216.64
2023-04-10T06:06:26.228Z,100224.73
2023-04-10T06:08:55.389Z,100223.27
2023-04-10T06:11:26.062Z,100221.23
2023-04-10T06:13:56.569Z,100217.62
2023-04-10T06:16:31.005Z,100215.05
2023-04-10T06:19:00.247Z,100219.91
2023-04-10T06:21:28.882Z,100220.02
2023-04-10T06:23:57.811Z,100219.27
2023-04-10T06:26:26.889Z,100219.03
2023-04-10T06:28:56.451Z,100216.02
2023-04-10T06:31:26.530Z,100214.10
2023-04-10T06:33:56.949Z,100217.52
2023-04-10T06:36:27.592Z,100219.66
2023-04-10T06:39:14.501Z,100210.36
2023-04-10T06:41:44.706Z,100211.49
2023-04-10T06:44:20.208Z,100214.13
2023-04-10T06:46:50.058Z,100212.73
2023-04-10T06:49:18.856Z,100213.77
2023-04-10T06:51:48.585Z,100216.00
2023-04-10T06:54:17.827Z,100217.65
2023-04-10T06:56:46.705Z,100215.05
2023-04-10T06:59:15.947Z,100209.18
2023-04-10T07:01:44.578Z,100220.62
2023-04-10T07:04:13.363Z,100221.05
2023-04-10T07:06:44.452Z,100216.08
2023-04-10T07:09:14.594Z,100217.00
2023-04-10T07:11:44.467Z,100218.04
2023-04-10T07:14:17.118Z,100213.94
2023-04-10T07:16:50.346Z,100216.48
2023-04-10T07:19:19.085Z,100208.81
2023-04-10T07:21:50.491Z,100216.70
2023-04-10T07:24:21.089Z,100219.48
2023-04-10T07:26:52.030Z,100215.81
2023-04-10T07:29:23.410Z,100214.21
2023-04-10T07:31:53.303Z,100210.59
2023-04-10T07:34:27.788Z,100207.96
2023-04-10T07:37:04.847Z,100204.67
2023-04-10T07:39:35.392Z,100197.65
2023-04-10T07:42:05.219Z,100198.30
2023-04-10T07:44:34.096Z,100196.68
2023-04-10T07:47:07.537Z,100200.86
2023-04-10T07:49:38.181Z,100201.66
2023-04-10T07:52:08.569Z,100193.76
2023-04-10T07:54:43.076Z,100188.09
2023-04-10T07:57:15.754Z,100195.31
2023-04-10T07:59:49.173Z,100194.14
2023-04-10T08:02:18.217Z,100201.03
2023-04-10T08:04:51.036Z,100199.85
2023-04-10T08:07:24.308Z,100199.71
2023-04-10T08:09:53.104Z,100202.52
2023-04-10T08:12:21.958Z,100192.52
2023-04-10T08:14:52.067Z,100201.27
2023-04-10T08:17:22.120Z,100194.92
2023-04-10T08:19:51.612Z,100186.98
2023-04-10T08:22:20.977Z,100186.66
2023-04-10T08:24:49.692Z,100185.67
2023-04-10T08:27:18.914Z,100181.80
2023-04-10T08:29:47.996Z,100181.30
2023-04-10T08:32:20.960Z,100187.23
2023-04-10T08:34:50.404Z,100189.23
2023-04-10T08:37:20.017Z,100191.23
2023-04-10T08:39:49.946Z,100188.41
2023-04-10T08:42:18.709Z,100188.47
2023-04-10T08:44:53.301Z,100181.99
2023-04-10T08:47:24.560Z,100181.44
2023-04-10T08:50:02.347Z,100170.69
2023-04-10T08:52:34.641Z,100183.02
2023-04-10T08:55:09.331Z,100175.45
2023-04-10T08:57:40.633Z,100176.70
2023-04-10T09:00:22.432Z,100173.74
2023-04-10T09:02:58.587Z,100170.94
2023-04-10T09:05:29.019Z,100168.81
2023-04-10T09:07:58.938Z,100162.69
2023-04-10T09:10:27.784Z,100163.71
2023-04-10T09:12:56.744Z,100164.09
2023-04-10T09:15:26.135Z,100159.65
2023-04-10T09:18:04.465Z,100150.67
2023-04-10T09:20:33.648Z,100152.48
2023-04-10T09:23:02.959Z,100148.97
2023-04-10T09:25:40.728Z,100140.89
2023-04-10T09:28:11.080Z,100144.08
2023-04-10T09:30:44.430Z,100144.64
2023-04-10T09:33:28.201Z,100142.88
2023-04-10T09:36:01.151Z,100139.11
2023-04-10T09:38:30.256Z,100137.33
2023-04-10T09:41:08.970Z,100135.89
2023-04-10T09:43:39.436Z,100137.98
2023-04-10T09:46:08.780Z,100131.54
2023-04-10T09:48:37.633Z,100136.89
2023-04-10T09:51:06.863Z,100135.73
2023-04-10T09:53:49.766Z,100127.46
2023-04-10T09:56:18.589Z,100127.02
2023-04-10T09:58:48.245Z,100119.13
2023-04-10T10:01:21.723Z,100124.94
2023-04-10T10:03:53.470Z,100129.95
2023-04-10T10:06:23.883Z,100128.29
2023-04-10T10:08:53.429Z,100122.89
2023-04-10T10:11:26.082Z,100117.16
2023-04-10T10:13:57.116Z,100115.45
2023-04-10T10:16:42.409Z,100114.73
2023-04-10T10:19:50.594Z,100120.21
2023-04-10T10:22:23.527Z,100111.02
2023-04-10T10:24:57.282Z,100111.29
2023-04-10T10:27:27.626Z,100107.35
2023-04-10T10:30:00.962Z,100105.70
2023-04-10T10:32:32.625Z,100097.96
2023-04-10T10:35:08.178Z,100097.96
2023-04-10T10:37:38.438Z,100098.59
2023-04-10T10:40:21.263Z,100099.25
2023-04-10T10:43:12.566Z,100098.70
2023-04-10T10:45:59.639Z,100089.70
2023-04-10T10:48:29.248Z,100090.89
2023-04-10T10:51:02.012Z,100095.45
2023-04-10T10:53:31.827Z,100088.76
2023-04-10T10:56:20.688Z,100087.73
2023-04-10T10:58:59.240Z,100086.80
2023-04-10T11:01:29.121Z,100077.98
2023-04-10T11:03:58.203Z,100080.11
2023-04-10T11:06:51.519Z,100079.81
2023-04-10T11:09:57.528Z,100075.66
2023-04-10T11:12:26.465Z,100075.39
2023-04-10T11:15:05.037Z,100067.35
2023-04-10T11:17:54.696Z,100073.29
2023-04-10T11:20:27.587Z,100065.55
2023-04-10T11:23:12.648Z,100067.01
2023-04-10T11:25:55.936Z,100073.20
2023-04-10T11:28:33.653Z,100072.05
2023-04-10T11:31:23.148Z,100074.10
2023-04-10T11:34:00.308Z,100072.57
2023-04-10T11:36:29.768Z,100064.92
2023-04-10T11:39:08.723Z,100055.26
2023-04-10T11:42:36.271Z,100049.39
2023-04-10T11:45:28.921Z,100044.93
2023-04-10T11:47:58.508Z,100052.62
2023-04-10T11:50:29.929Z,100047.16
2023-04-10T11:52:58.671Z,100051.05
2023-04-10T11:55:40.061Z,100044.55
2023-04-10T11:58:26.487Z,100044.68
2023-04-10T12:01:04.815Z,100031.52
2023-04-10T12:03:42.114Z,100039.00
2023-04-10T12:06:16.150Z,100039.09
2023-04-10T12:08:49.637Z,100039.62
2023-04-10T12:11:21.888Z,100038.68
2023-04-10T12:13:55.661Z,100037.28
2023-04-10T12:16:26.169Z,100038.98
2023-04-10T12:18:55.642Z,100030.23
2023-04-10T12:21:24.930Z,100028.06
2023-04-10T12:23:53.668Z,100023.01
2023-04-10T12:26:22.264Z,100022.64
2023-04-10T12:28:55.479Z,100020.31
2023-04-10T12:31:35.011Z,100020.63
2023-04-10T12:34:05.950Z,100019.67
2023-04-10T12:36:35.564Z,100014.90
2023-04-10T12:39:06.362Z,100009.30
2023-04-10T12:41:38.170Z,100011.19
2023-04-10T12:44:11.218Z,99997.75
2023-04-10T12:46:41.720Z,100007.71
2023-04-10T12:49:16.504Z,99996.02
2023-04-10T12:51:54.154Z,99993.48
2023-04-10T12:54:37.519Z,99988.64
2023-04-10T12:57:06.560Z,99987.59
2023-04-10T12:59:39.363Z,99986.24
2023-04-10T13:02:08.207Z,99984.17
2023-04-10T13:04:37.216Z,99982.15
2023-04-10T13:07:05.940Z,99984.32
2023-04-10T13:09:34.637Z,99983.80
2023-04-10T13:12:08.946Z,99968.02
2023-04-10T13:14:43.559Z,99977.28
2023-04-10T13:17:16.723Z,99962.77
2023-04-10T13:19:45.552Z,99963.84
2023-04-10T13:22:14.288Z,99958.75
2023-04-10T13:24:43.867Z,99961.58
2023-04-10T13:27:13.998Z,99954.88
2023-04-10T13:29:43.938Z,99955.15
2023-04-10T13:32:13.346Z,99948.14
2023-04-10T13:34:41.998Z,99952.50
2023-04-10T13:37:13.402Z,99947.88
2023-04-10T13:39:43.747Z,99941.17
2023-04-10T13:42:12.451Z,99938.84
2023-04-10T13:44:41.265Z,99938.77
2023-04-10T13:47:10.138Z,99941.00
2023-04-10T13:49:39.044Z,99940.40
2023-04-10T13:52:07.693Z,99934.42
2023-04-10T13:54:36.426Z,99939.64
2023-04-10T13:57:05.348Z,99935.39
2023-04-10T13:59:34.056Z,99930.66
2023-04-10T14:02:05.152Z,99927.67
2023-04-10T14:04:33.855Z,99924.59
2023-04-10T14:07:02.696Z,99923.77
2023-04-10T14:09:31.420Z,99928.73
2023-04-10T14:12:00.156Z,99930.23
2023-04-10T14:14:28.888Z,99925.61
2023-04-10T14:16:58.157Z,99925.41
2023-04-10T14:19:26.924Z,99917.45
2023-04-10T14:21:55.623Z,99913.86
2023-04-10T14:24:24.305Z,99913.10
2023-04-10T14:26:58.544Z,99915.98
2023-04-10T14:29:37.181Z,99909.42
2023-04-10T14:32:07.918Z,99906.39
2023-04-10T14:34:36.594Z,99906.34
2023-04-10T14:37:05.438Z,99898.73
2023-04-10T14:39:36.894Z,99895.74
2023-04-10T14:42:06.352Z,99892.33
2023-04-10T14:44:35.279Z,99891.00
2023-04-10T14:47:06.716Z,99887.55
2023-04-10T14:49:35.673Z,99887.35
2023-04-10T14:52:04.331Z,99885.34
2023-04-10T14:54:33.280Z,99889.33
2023-04-10T14:57:02.213Z,99884.50
2023-04-10T14:59:31.916Z,99884.97
2023-04-10T15:02:00.779Z,99883.23
2023-04-10T15:04:29.571Z,99886.17
2023-04-10T15:06:58.393Z,99878.75
2023-04-10T15:09:27.019Z,99880.38
2023-04-10T15:11:56.953Z,99883.26
2023-04-10T15:14:26.099Z,99884.45
2023-04-10T15:16:55.652Z,99884.61
2023-04-10T15:19:24.765Z,99884.04
2023-04-10T15:21:55.306Z,99879.98
2023-04-10T15:24:24.666Z,99879.73
2023-04-10T15:26:53.962Z,99878.88
2023-04-10T15:29:22.926Z,99871.92
2023-04-10T15:31:51.779Z,99871.07
2023-04-10T15:34:20.411Z,99870.94
2023-04-10T15:36:49.066Z,99871.38
2023-04-10T15:39:17.725Z,99871.79
2023-04-10T15:41:46.315Z,99872.27
2023-04-10T15:44:14.903Z,99872.07
2023-04-10T15:46:44.165Z,99872.72
2023-04-10T15:49:16.402Z,99876.87
2023-04-10T15:51:49.573Z,99874.27
2023-04-10T15:54:18.240Z,99880.17
2023-04-10T15:56:47.731Z,99878.19
2023-04-10T15:59:16.470Z,99878.85
2023-04-10T16:01:45.773Z,99875.54
2023-04-10T16:04:14.798Z,99877.40
2023-04-10T16:06:43.992Z,99875.52
2023-04-10T16:09:24.893Z,99873.38
2023-04-10T16:11:56.455Z,99872.42
2023-04-10T16:14:25.900Z,99864.25
2023-04-10T16:16:56.453Z,99867.95
2023-04-10T16:19:25.624Z,99867.77
2023-04-10T16:21:57.104Z,99871.21
2023-04-10T16:24:25.991Z,99870.05
2023-04-10T16:26:54.502Z,99869.73
2023-04-10T16:29:23.418Z,99869.67
2023-04-10T16:31:52.813Z,99873.63
2023-04-10T16:34:22.208Z,99863.32
2023-04-10T16:36:51.350Z,99865.81
2023-04-10T16:39:20.997Z,99863.52
2023-04-10T16:41:50.341Z,99869.09
2023-04-10T16:44:19.362Z,99880.06
2023-04-10T16:46:48.481Z,99874.27
2023-04-10T16:49:17.799Z,99891.17
2023-04-10T16:51:47.070Z,99893.45
2023-04-10T16:54:16.448Z,99891.65
2023-04-10T16:56:45.061Z,99891.49
2023-04-10T16:59:14.409Z,99890.06
2023-04-10T17:01:43.196Z,99894.13
2023-04-10T17:04:13.103Z,99891.84
2023-04-10T17:06:42.602Z,99887.84
2023-04-10T17:09:11.991Z,99897.04
2023-04-10T17:11:41.160Z,99895.50
2023-04-10T17:14:10.724Z,99893.55
2023-04-10T17:16:40.837Z,99893.86
2023-04-10T17:19:09.524Z,99893.48
2023-04-10T17:21:38.936Z,99893.29
2023-04-10T17:24:08.462Z,99892.39
2023-04-10T17:26:37.216Z,99888.14
2023-04-10T17:29:06.344Z,99887.13
2023-04-10T17:31:35.374Z,99886.75
2023-04-10T17:34:05.018Z,99886.39
2023-04-10T17:36:34.060Z,99888.51
2023-04-10T17:39:03.098Z,99883.48
2023-04-10T17:41:32.227Z,99883.61
2023-04-10T17:44:02.739Z,99881.64
2023-04-10T17:46:31.425Z,99886.01
2023-04-10T17:49:01.726Z,99880.77
2023-04-10T17:51:31.908Z,99883.09
2023-04-10T17:54:00.848Z,99882.20
2023-04-10T17:56:29.510Z,99881.67
2023-04-10T17:59:00.742Z,99880.69
2023-04-10T18:01:31.268Z,99887.92
2023-04-10T18:04:02.956Z,99885.67
2023-04-10T18:06:32.159Z,99894.77
2023-04-10T18:09:01.421Z,99897.66
2023-04-10T18:11:30.585Z,99900.98
2023-04-10T18:13:59.691Z,99903.83
2023-04-10T18:16:30.080Z,99897.83
2023-04-10T18:18:59.077Z,99892.28
2023-04-10T18:21:28.385Z,99889.90
2023-04-10T18:23:57.391Z,99889.70
2023-04-10T18:26:29.936Z,99891.09
2023-04-10T18:29:01.049Z,99885.11
2023-04-10T18:31:29.789Z,99878.50
2023-04-10T18:34:07.281Z,99879.08
2023-04-10T18:36:37.388Z,99881.73
2023-04-10T18:39:06.249Z,99876.88
2023-04-10T18:41:35.459Z,99878.13
2023-04-10T18:44:05.932Z,99882.80
2023-04-10T18:46:35.162Z,99882.23
2023-04-10T18:49:04.516Z,99883.02
2023-04-10T18:51:35.230Z,99880.80
2023-04-10T18:54:05.016Z,99881.84
2023-04-10T18:56:35.947Z,99880.64
2023-04-10T18:59:05.411Z,99882.54
2023-04-10T19:01:34.284Z,99883.45
2023-04-10T19:04:03.473Z,99888.02
2023-04-10T19:06:33.166Z,99884.56
2023-04-10T19:09:01.930Z,99884.66
2023-04-10T19:11:30.689Z,99880.55
2023-04-10T19:13:59.339Z,99882.94
2023-04-10T19:16:28.644Z,99883.60
2023-04-10T19:18:57.641Z,99881.63
2023-04-10T19:21:26.581Z,99881.00
2023-04-10T19:23:55.593Z,99881.98
2023-04-10T19:26:24.777Z,99882.02
2023-04-10T19:28:55.324Z,99879.60
2023-04-10T19:31:27.809Z,99880.64
2023-04-10T19:33:57.196Z,99881.01
2023-04-10T19:36:27.405Z,99879.55
2023-04-10T19:38:57.680Z,99876.70
2023-04-10T19:41:28.092Z,99875.41
2023-04-10T19:43:57.156Z,99874.11
2023-04-10T19:46:26.581Z,99874.25
2023-04-10T19:48:56.041Z,99870.88
2023-04-10T19:51:25.340Z,99873.26
2023-04-10T19:53:56.068Z,99875.08
2023-04-10T19:56:26.860Z,99876.17
2023-04-10T19:58:56.406Z,99871.27
2023-04-10T20:01:25.330Z,99869.94
2023-04-10T20:03:54.200Z,99872.40
2023-04-10T20:06:24.187Z,99871.63
2023-04-10T20:08:53.242Z,99869.66
2023-04-10T20:11:22.020Z,99870.66
2023-04-10T20:13:50.819Z,99866.86
2023-04-10T20:16:19.709Z,99864.56
2023-04-10T20:18:48.539Z,99861.63
2023-04-10T20:21:17.140Z,99858.80
2023-04-10T20:23:45.856Z,99854.85
2023-04-10T20:26:14.942Z,99853.36
2023-04-10T20:28:43.593Z,99854.88
2023-04-10T20:31:12.468Z,99848.20
2023-04-10T20:33:41.130Z,99846.05
2023-04-10T20:36:10.166Z,99841.89
2023-04-10T20:38:40.313Z,99842.91
2023-04-10T20:41:08.952Z,99840.02
2023-04-10T20:43:37.708Z,99845.64
2023-04-10T20:46:08.234Z,99848.98
2023-04-10T20:48:38.391Z,99850.97
2023-04-10T20:51:07.600Z,99848.05
2023-04-10T20:53:36.213Z,99853.88
2023-04-10T20:56:06.320Z,99851.11
2023-04-10T20:58:35.238Z,99859.92
2023-04-10T21:01:03.949Z,99858.54
2023-04-10T21:03:32.746Z,99857.55
2023-04-10T21:06:04.495Z,99855.33
2023-04-10T21:08:33.170Z,99851.95
2023-04-10T21:11:01.857Z,99854.36
2023-04-10T21:13:30.457Z,99856.09
2023-04-10T21:15:59.086Z,99854.98
2023-04-10T21:18:27.757Z,99853.79
2023-04-10T21:20:56.412Z,99854.54
2023-04-10T21:23:25.193Z,99856.37
2023-04-10T21:25:53.835Z,99852.80
2023-04-10T21:28:22.679Z,99849.85
2023-04-10T21:30:51.319Z,99843.58
2023-04-10T21:33:20.144Z,99843.74
2023-04-10T21:35:48.784Z,99843.99
2023-04-10T21:38:17.361Z,99835.91
2023-04-10T21:40:53.625Z,99823.05
2023-04-10T21:43:22.655Z,99818.70
2023-04-10T21:45:51.263Z,99816.66
2023-04-10T21:48:20.945Z,99820.65
2023-04-10T21:50:50.662Z,99824.64
2023-04-10T21:53:19.809Z,99825.02
2023-04-10T21:55:48.521Z,99824.52
2023-04-10T21:58:17.127Z,99824.32
2023-04-10T22:00:47.478Z,99821.81
2023-04-10T22:03:16.744Z,99817.27
2023-04-10T22:05:46.345Z,99814.70
2023-04-10T22:08:15.232Z,99818.75
2023-04-10T22:10:45.741Z,99806.38
2023-04-10T22:13:27.356Z,99807.82
2023-04-10T22:16:02.408Z,99799.77
2023-04-10T22:18:31.747Z,99793.49
2023-04-10T22:21:00.484Z,99789.55
2023-04-10T22:23:29.155Z,99786.17
2023-04-10T22:26:01.169Z,99786.34
2023-04-10T22:28:30.118Z,99785.79
2023-04-10T22:30:58.822Z,99785.13
2023-04-10T22:33:27.585Z,99792.35
2023-04-10T22:35:56.180Z,99788.69
2023-04-10T22:38:24.805Z,99791.39
2023-04-10T22:40:55.262Z,99789.50
2023-04-10T22:43:23.963Z,99783.87
2023-04-10T22:57:58.405Z,99772.66
2023-04-10T23:00:27.351Z,99765.26
2023-04-10T23:02:56.217Z,99763.80
2023-04-10T23:05:24.986Z,99762.41
2023-04-10T23:07:54.170Z,99763.27
2023-04-10T23:10:22.903Z,99762.90
2023-04-10T23:12:51.479Z,99759.96
2023-04-10T23:15:20.386Z,99753.04
2023-04-10T23:17:49.011Z,99751.02
2023-04-10T23:20:17.804Z,99749.60
2023-04-10T23:22:46.442Z,99745.61
2023-04-10T23:25:15.844Z,99747.32
2023-04-10T23:27:44.538Z,99749.08
2023-04-10T23:30:13.621Z,99749.02
2023-04-10T23:32:42.286Z,99747.81
2023-04-10T23:35:10.947Z,99746.76
2023-04-10T23:37:39.533Z,99746.84
2023-04-10T23:40:09.081Z,99744.02
2023-04-10T23:42:37.555Z,99740.98
2023-04-10T23:45:07.410Z,99740.27
2023-04-10T23:47:36.189Z,99738.00
2023-04-10T23:50:05.265Z,99733.10
2023-04-10T23:52:33.879Z,99724.68
2023-04-10T23:55:02.526Z,99719.58
2023-04-10T23:57:31.206Z,99721.89
2023-04-10T23:59:59.894Z,99722.15
